Bouillon, Belgium
Current Conditions -  °F | °C
As of 6:25 AM on Saturday 25 Oct 2014 (Local Time) from EBFS Reporting Station
Haze Haze  
Wind Chill: 50°   Ceiling: 400
Heat Index: 50°   Visibility: 2.5mi
Dew Point: 50°   Wind: 5mph
Humidity: 100%   Direction: 240°WSW
Pressure: 30.06"   Gusts: NA
Location:  49.79°N, 5.07°E
Report Text: EBFS 250425Z 24004KT 4000 BR FEW002 BKN004 BKN007 10/10 Q1018 YLO
Loading
Personal Weather Stations






























Interactive Weather Map
Tropical Storm Tracking
New forecast layout! Learn more

10-Day Weather Forecast

Advertisements
Track Severe Weather on mobile